Accueil
METAR-TAF:

METAR-TAF

Aéroports :

Aviano Air Base

Aviano, Italie

latitude: 46-02N, longitude: 012-36E, altitude: 128 m

Observation

Le bulletin a été fait il y a 14 heures et 43 minutes, à 17:55 UTC
Vent 4 kt de ouest/sud-ouest
Température 29°C
Humidité 66%
Pression 1009 hPa
Visibilité 10 km ou plus
Quelques nuages à une hauteur de 6000 ft

METAR: LIPA 131755Z 25004KT 9999 FEW060 29/22 Q1009 RMK FEW VIS MIN 9999 WIND THR05 /////KT WIND THR23 /////KT A2981 BLU

Heure: 10:38 (08:38 UTC)

Prévision

Le bulletin a été fait il y a 18 heures et 38 minutes, à 14:00 UTC
Prévision valable du 13 à 15 UTC au 13 à 24 UTC
Vent 8 kt de ouest
Visibilité 10 km ou plus
Quelques nuages à une hauteur de 6000 ft

TAF: LIPA 131400Z 1315/1324 26008KT 9999 FEW060

Observations et prévisions météorologiques de plus de 4000 aéroports (messages METAR et TAF).

Les stations disponibles sont représentées par des disques jaunes et rouges sur la carte.

Passer la souris dessus pour voir le nom de la station.

Cliquer dessus pour voir les observations et prévisions météorologiques.

Pour changer de carte: cliquez sur les boutons verts avec une croix noire pour zoomer, sur le bouton vert avec un tiret pour effectuer un zoom arrière, ou sur les flèches vertes pour les cartes adjacentes.


METAR-TAF: